Al Udeid, Qatar

7:05 AM AST on December 18, 2014 (GMT +0300)
Al Udeid | Change Station
CLOSE
Current Station
Airport
Location: Al Udeid,
Elevation: 138 ft
Nearby Weather Stations

Elev 138 ft 25.20 °N, 51.32 °E | Updated 7 minutes ago

Clear
Clear
62 °F
Feels Like 62 °F
N
13
Wind Variable Wind from NW

Today
High -- | Low -- °F
--% Chance of Precip.
Yesterday
High -- | Low -- °F
Precip. -- in
6:13 AM 4:48 PM
Waning Crescent, 17% visible
Pressure 30.20 in
Visibility 1.7 miles
Clouds Clear
Dew Point 58 °F
Humidity 87%
Rainfall 0.00 in
Snow Depth Not available.
UV 0 out of 12
Pollen Not available.
Air Quality Not available.
Flu Activity Not available.
METAR KQIR 180358Z 31011KT 2800 BR CLR 17/15 A3019 RMK AO2A SLP225 T01680147 $

More Conditions Fewer Conditions

Pressure 30.20 in
Visibility 1.7 miles
Clouds Clear
Dew Point 58 °F
Humidity 87%
Rainfall 0.00 in
Snow Depth Not available.
UV 0 out of 12
Pollen Not available.
Air Quality Not available.
Flu Activity Not available.
METAR KQIR 180358Z 31011KT 2800 BR CLR 17/15 A3019 RMK AO2A SLP225 T01680147 $

More Conditions Fewer Conditions

10-Day Weather Forecast

Almanac

Astronomy

Dec. 18, 2014 Rise Set
Actual Time
Civil Twilight
Nautical Twilight
Astronomical Twilight
Moon
Length of Visible Light
Length of Day
Tomorrow will be .
, % of the Moon is Illuminated

Today's Extremes

Country Highs Country Lows

Community

WunderPhotos

Upload Photos

1,778,879 photos uploaded!

WunderBlogs® & News

Nearby

Air Quality

  Air Quality AQ Index Pollutant
Not available.

Snow Depth

Station Depth Elevation

Earthquake Activity

City Distance Mag. Time & Date
Minimum magnitude displayed is 2.5.

Coastal Water Temperatures

Place Temperature

Nearby Weather Stations